Time;durP1;ratioP1;P1;durP2;ratioP2;P2;SDS_P1;SDS_P2;PMS_P1;PMS_P2;Temp;Humidity;BMP_temperature;BMP_pressure;BME280_temperature;BME280_humidity;BME280_pressure;Samples;Min_cycle;Max_cycle;Signal;HPM_P1;HPM_P2
2021/11/25 00:01:57;;;;;;;24.83;18.90;;;;;;;1.36;77.02;99348.66;5081561;22;20232;-81
2021/11/25 00:04:34;;;;;;;22.83;17.87;;;;;;;1.30;76.41;99336.16;5079362;22;20218;-81
2021/11/25 00:07:20;;;;;;;24.17;18.57;;;;;;;1.30;77.27;99339.63;5065544;22;20273;-81
2021/11/25 00:09:57;;;;;;;26.93;20.00;;;;;;;1.46;76.99;99353.75;5081114;22;20240;-81
2021/11/25 00:12:27;;;;;;;26.47;18.93;;;;;;;1.46;76.40;99353.75;5073258;28;20202;-81
2021/11/25 00:14:59;;;;;;;24.60;18.50;;;;;;;1.44;76.47;99348.66;5080400;22;20251;-81
2021/11/25 00:17:44;;;;;;;25.47;19.27;;;;;;;1.42;76.85;99347.16;5073727;28;20221;-81
2021/11/25 00:20:12;;;;;;;24.27;18.63;;;;;;;1.31;77.24;99330.69;5074083;28;20174;-81
2021/11/25 00:22:45;;;;;;;26.30;19.30;;;;;;;1.36;77.15;99337.28;5079433;22;20237;-81
2021/11/25 00:25:33;;;;;;;24.37;19.20;;;;;;;1.40;77.45;99344.69;5077814;22;20243;-81
2021/11/25 00:28:01;;;;;;;26.07;19.37;;;;;;;1.48;77.08;99344.69;5072527;28;20209;-81
2021/11/25 00:30:32;;;;;;;27.13;18.60;;;;;;;1.48;77.16;99338.59;5072776;28;20209;-81
2021/11/25 00:33:06;;;;;;;24.73;19.03;;;;;;;1.41;77.81;99329.69;5088333;28;20225;-81
2021/11/25 00:35:38;;;;;;;24.70;19.47;;;;;;;1.37;77.62;99344.22;5083009;22;20238;-81
2021/11/25 00:38:05;;;;;;;23.57;18.80;;;;;;;1.31;77.19;99328.03;5076239;28;20231;-81
2021/11/25 00:40:46;;;;;;;24.87;18.43;;;;;;;1.42;77.50;99333.97;5061584;28;20250;-81
2021/11/25 00:43:13;;;;;;;25.63;19.10;;;;;;;1.50;77.61;99326.03;5089009;22;20217;-81
2021/11/25 00:45:45;;;;;;;26.33;19.10;;;;;;;1.56;76.18;99330.63;5094094;28;20188;-81
2021/11/25 00:48:17;;;;;;;25.13;18.57;;;;;;;1.57;76.60;99327.00;5083928;22;21251;-81
2021/11/25 00:50:45;;;;;;;23.17;17.87;;;;;;;1.68;75.85;99327.44;5058389;28;20204;-81
2021/11/25 00:53:15;;;;;;;25.73;19.03;;;;;;;1.55;75.27;99318.41;5076251;28;20264;-81
2021/11/25 00:55:58;;;;;;;22.67;18.20;;;;;;;1.43;76.28;99304.78;5072545;22;20228;-81
2021/11/25 00:58:29;;;;;;;22.83;17.80;;;;;;;1.53;76.52;99310.69;5081544;22;20223;-81
2021/11/25 01:01:02;;;;;;;24.57;18.37;;;;;;;1.50;76.13;99320.75;5097301;22;20256;-81
2021/11/25 01:03:41;;;;;;;22.63;17.57;;;;;;;1.53;75.85;99312.50;5068974;28;20228;-81
2021/11/25 01:06:11;;;;;;;24.20;17.53;;;;;;;1.45;75.28;99299.31;5070837;28;20204;-81
2021/11/25 01:08:38;;;;;;;22.70;17.80;;;;;;;1.40;75.74;99297.16;5051744;23;20226;-81
2021/11/25 01:11:12;;;;;;;22.07;16.73;;;;;;;1.46;75.85;99295.69;5049509;28;20264;-81
2021/11/25 01:13:51;;;;;;;24.93;18.77;;;;;;;1.33;75.78;99286.47;5050984;28;20233;-81
2021/11/25 01:16:23;;;;;;;24.87;17.77;;;;;;;1.31;75.81;99280.53;5051516;28;22393;-81
2021/11/25 01:19:10;;;;;;;24.33;18.00;;;;;;;1.25;75.91;99277.75;5050116;28;20214;-81
2021/11/25 01:21:59;;;;;;;22.43;16.90;;;;;;;1.52;74.59;99277.34;5051077;28;20221;-81
2021/11/25 01:24:34;;;;;;;23.07;17.03;;;;;;;1.66;74.07;99274.00;5053078;28;20178;-80
2021/11/25 01:27:07;;;;;;;23.30;16.53;;;;;;;1.69;74.10;99276.28;5036576;28;20239;-81
2021/11/25 01:30:12;;;;;;;21.13;16.67;;;;;;;1.82;74.22;99288.13;5052024;28;20294;-80
2021/11/25 01:32:43;;;;;;;22.03;16.80;;;;;;;1.91;73.71;99282.66;5052246;28;20213;-81
2021/11/25 01:35:27;;;;;;;23.13;16.97;;;;;;;1.94;73.97;99269.09;5036919;28;20238;-81
2021/11/25 01:37:58;;;;;;;23.03;16.63;;;;;;;2.02;73.02;99270.84;5054074;28;20186;-81
2021/11/25 01:40:47;;;;;;;20.67;16.03;;;;;;;2.05;73.01;99273.94;5088914;22;20284;-81
2021/11/25 01:43:25;;;;;;;21.83;16.70;;;;;;;2.11;73.06;99267.97;5079843;22;20211;-81
2021/11/25 01:45:58;;;;;;;22.60;16.30;;;;;;;2.15;72.49;99263.16;5055799;28;20181;-82
2021/11/25 01:48:25;;;;;;;20.63;16.57;;;;;;;2.19;73.27;99269.78;5062525;23;20225;-81
2021/11/25 01:50:57;;;;;;;22.93;16.33;;;;;;;2.29;72.61;99270.34;5042784;23;20222;-81
2021/11/25 01:53:36;;;;;;;20.63;15.20;;;;;;;2.21;72.98;99271.22;5084999;22;20212;-81
2021/11/25 01:56:08;;;;;;;20.60;15.63;;;;;;;2.18;73.41;99268.94;5075780;28;20195;-81
2021/11/25 01:58:44;;;;;;;21.30;16.93;;;;;;;2.08;73.38;99255.13;5092879;28;20197;-81
2021/11/25 02:01:22;;;;;;;20.37;16.20;;;;;;;2.06;73.15;99258.94;5093903;28;20188;-81
2021/11/25 02:03:55;;;;;;;21.33;16.47;;;;;;;2.00;73.66;99264.94;5059687;28;20232;-81
2021/11/25 02:06:24;;;;;;;22.67;17.30;;;;;;;1.91;73.96;99261.50;5100288;22;20383;-81
2021/11/25 02:09:29;;;;;;;23.83;17.00;;;;;;;1.91;74.49;99252.75;5077674;28;20294;-81
2021/11/25 02:12:02;;;;;;;21.90;16.90;;;;;;;1.80;74.52;99246.03;5093408;28;20221;-81
2021/11/25 02:14:30;;;;;;;22.30;17.97;;;;;;;1.66;74.58;99234.38;5092307;28;20229;-81
2021/11/25 02:17:17;;;;;;;22.50;17.67;;;;;;;1.72;74.87;99244.28;5100636;22;20215;-81
2021/11/25 02:20:10;;;;;;;22.23;16.80;;;;;;;1.69;74.87;99220.00;5053834;28;20233;-81
2021/11/25 02:23:11;;;;;;;21.90;15.93;;;;;;;1.76;74.94;99224.44;5072323;28;20285;-81
2021/11/25 02:26:00;;;;;;;23.63;17.73;;;;;;;1.75;74.89;99228.06;5071653;28;20174;-81
2021/11/25 02:28:31;;;;;;;21.53;17.03;;;;;;;1.63;74.93;99226.00;5070707;28;20209;-81
2021/11/25 02:31:09;;;;;;;22.43;15.87;;;;;;;1.71;74.59;99218.03;5044117;28;20234;-81
2021/11/25 02:33:50;;;;;;;23.73;16.83;;;;;;;1.68;74.43;99213.88;5075583;28;20221;-81
2021/11/25 02:36:25;;;;;;;22.80;16.47;;;;;;;1.82;75.18;99211.53;5074879;28;20205;-81
2021/11/25 02:38:59;;;;;;;22.37;16.47;;;;;;;1.80;74.56;99201.13;5100785;22;20228;-81
2021/11/25 02:41:38;;;;;;;20.47;15.77;;;;;;;1.85;73.85;99198.78;5080977;28;20157;-81
2021/11/25 02:44:07;;;;;;;22.20;16.07;;;;;;;1.85;74.02;99206.72;5078571;28;20239;-81
2021/11/25 02:46:38;;;;;;;22.57;16.37;;;;;;;1.83;73.89;99202.59;5096303;28;20208;-82
2021/11/25 02:49:07;;;;;;;20.90;15.80;;;;;;;1.87;73.59;99196.00;5112133;22;20220;-81
2021/11/25 02:52:01;;;;;;;19.93;16.20;;;;;;;1.92;73.62;99194.44;5099079;28;20223;-81
2021/11/25 02:54:29;;;;;;;21.70;16.30;;;;;;;2.00;73.58;99204.16;5098648;28;20231;-81
2021/11/25 02:56:59;;;;;;;22.53;15.53;;;;;;;1.96;73.64;99177.25;5115799;28;20224;-81
2021/11/25 02:59:33;;;;;;;20.77;15.67;;;;;;;1.95;72.95;99188.00;5100767;23;20258;-81
2021/11/25 03:02:00;;;;;;;20.27;15.63;;;;;;;1.89;73.61;99173.66;5078172;28;20638;-81
2021/11/25 03:04:45;;;;;;;20.77;16.10;;;;;;;1.99;72.63;99170.81;5080279;28;20270;-81
2021/11/25 03:07:16;;;;;;;22.30;15.97;;;;;;;2.06;73.04;99179.66;5094567;28;20232;-80
2021/11/25 03:10:16;;;;;;;23.17;16.73;;;;;;;2.06;72.50;99179.66;5118332;22;20223;-81
2021/11/25 03:12:46;;;;;;;20.73;15.87;;;;;;;1.98;72.79;99156.75;5073481;28;20213;-82
2021/11/25 03:15:13;;;;;;;21.33;15.77;;;;;;;2.08;72.70;99148.59;5071229;22;20225;-81
2021/11/25 03:17:40;;;;;;;21.87;16.20;;;;;;;2.11;72.63;99164.09;5064510;23;20214;-81
2021/11/25 03:20:13;;;;;;;23.10;17.03;;;;;;;2.05;72.77;99170.09;5074728;23;20225;-81
2021/11/25 03:22:47;;;;;;;22.97;16.60;;;;;;;2.04;73.00;99169.28;5062704;28;20185;-81
2021/11/25 03:25:19;;;;;;;19.60;15.27;;;;;;;2.08;73.33;99162.63;5060739;28;20209;-80
2021/11/25 03:27:52;;;;;;;22.20;15.77;;;;;;;2.13;73.24;99164.75;5077533;28;20229;-81
2021/11/25 03:30:24;;;;;;;20.73;15.93;;;;;;;2.02;73.31;99165.16;5107117;22;20228;-80
2021/11/25 03:33:12;;;;;;;22.80;16.07;;;;;;;2.05;73.74;99148.97;5064744;23;20221;-81
2021/11/25 03:35:39;;;;;;;23.33;16.40;;;;;;;2.07;73.77;99158.34;5070296;28;20316;-81
2021/11/25 03:38:09;;;;;;;22.80;17.10;;;;;;;1.99;73.54;99153.13;4939343;23;4010470;-82
2021/11/25 03:40:36;;;;;;;22.50;16.80;;;;;;;1.92;73.86;99141.59;5061576;28;20189;-81
2021/11/25 03:43:08;;;;;;;22.97;17.27;;;;;;;1.96;74.24;99145.53;5059661;28;20197;-81
2021/11/25 03:45:41;;;;;;;22.97;16.97;;;;;;;1.94;73.98;99152.00;5061967;23;20229;-81
2021/11/25 03:48:17;;;;;;;22.30;17.07;;;;;;;1.92;74.38;99138.97;5056478;28;20201;-81
2021/11/25 03:51:08;;;;;;;21.77;16.63;;;;;;;1.99;74.27;99137.28;5057055;28;20251;-81
2021/11/25 03:53:43;;;;;;;24.00;17.03;;;;;;;2.04;74.16;99137.56;5073552;28;20627;-81
2021/11/25 03:56:32;;;;;;;22.53;17.40;;;;;;;1.99;74.51;99132.00;5071112;28;20232;-81
2021/11/25 03:59:23;;;;;;;25.13;17.20;;;;;;;1.97;75.06;99120.75;5072543;28;20229;-81
2021/11/25 04:01:55;;;;;;;22.43;16.70;;;;;;;1.93;75.03;99124.75;5095732;22;20205;-81
2021/11/25 04:04:30;;;;;;;23.20;17.33;;;;;;;2.05;74.50;99133.13;5077076;28;20216;-82
2021/11/25 04:07:02;;;;;;;22.63;17.17;;;;;;;1.94;74.95;99118.47;5066170;23;20232;-81
2021/11/25 04:09:29;;;;;;;25.50;18.47;;;;;;;1.95;74.99;99117.50;5082474;23;20229;-81
2021/11/25 04:12:11;;;;;;;24.43;18.03;;;;;;;1.80;75.43;99110.50;5092922;28;20184;-81
2021/11/25 04:14:43;;;;;;;23.93;18.30;;;;;;;1.97;75.31;99119.94;5075586;28;20189;-82
2021/11/25 04:17:13;;;;;;;23.80;18.03;;;;;;;1.89;75.14;99112.91;5094423;28;20184;-81
2021/11/25 04:19:44;;;;;;;23.37;16.87;;;;;;;1.88;75.78;99113.91;5098388;22;20272;-81
2021/11/25 04:22:21;;;;;;;23.10;17.53;;;;;;;1.95;75.61;99114.84;5076457;28;20221;-81
2021/11/25 04:25:00;;;;;;;23.60;17.80;;;;;;;1.94;75.09;99107.91;5092379;28;20205;-81
2021/11/25 04:27:30;;;;;;;22.43;17.20;;;;;;;2.03;75.12;99106.84;5098966;22;20482;-82
2021/11/25 04:35:32;;;;;;;22.37;16.50;;;;;;;2.19;74.29;99101.41;5068104;23;20826;-81
2021/11/25 04:38:26;;;;;;;25.23;15.80;;;;;;;2.35;74.25;99102.28;5061508;28;20212;-81
2021/11/25 04:41:07;;;;;;;23.00;17.20;;;;;;;2.31;74.48;99087.78;5109659;22;20235;-81
2021/11/25 04:43:56;;;;;;;21.00;16.60;;;;;;;2.38;74.23;99100.09;5104754;22;20255;-81
2021/11/25 04:46:53;;;;;;;23.03;17.10;;;;;;;2.29;74.13;99082.66;5083333;23;20228;-81
2021/11/25 04:49:41;;;;;;;23.47;17.30;;;;;;;2.43;73.92;99086.31;5031468;28;20229;-81
2021/11/25 04:52:14;;;;;;;22.27;17.00;;;;;;;2.48;73.77;99089.25;5063129;22;20291;-81
2021/11/25 04:55:19;;;;;;;22.27;16.13;;;;;;;2.55;73.19;99080.44;5088083;22;20211;-81
2021/11/25 04:58:09;;;;;;;22.07;16.57;;;;;;;2.38;73.70;99070.22;5088823;23;20315;-81
2021/11/25 05:00:42;;;;;;;22.80;16.53;;;;;;;2.50;73.74;99093.38;5034933;28;20234;-81
2021/11/25 05:03:22;;;;;;;26.23;17.43;;;;;;;2.50;74.00;99074.03;5053054;28;20236;-81
2021/11/25 05:05:54;;;;;;;22.33;16.60;;;;;;;2.45;73.86;99055.25;5053063;28;20190;-81
2021/11/25 05:08:23;;;;;;;23.97;16.33;;;;;;;2.52;73.13;99067.56;5146192;22;20232;-81
2021/11/25 05:11:00;;;;;;;25.20;18.10;;;;;;;2.53;73.59;99057.78;5060378;28;20215;-81
2021/11/25 05:14:01;;;;;;;23.13;17.77;;;;;;;2.39;73.76;99038.28;5093505;28;20222;-81
2021/11/25 05:16:49;;;;;;;23.30;17.23;;;;;;;2.45;74.28;99058.72;4997026;28;20183;-81
2021/11/25 05:19:23;;;;;;;24.63;18.47;;;;;;;2.29;74.32;99053.59;5012973;28;20202;-81
2021/11/25 05:21:51;;;;;;;25.97;18.20;;;;;;;2.10;74.48;99025.06;5009911;28;20193;-81
2021/11/25 05:24:36;;;;;;;24.77;17.33;;;;;;;2.33;74.76;99046.97;5032507;28;20317;-81
2021/11/25 05:27:05;;;;;;;24.40;17.03;;;;;;;2.29;74.62;99040.38;5092855;22;20232;-81
2021/11/25 05:29:53;;;;;;;23.53;17.33;;;;;;;2.37;73.93;99048.22;5091638;28;20701;-81
2021/11/25 05:32:21;;;;;;;24.93;17.67;;;;;;;2.37;74.03;99037.66;5074380;28;20236;-81
2021/11/25 05:37:24;;;;;;;24.30;17.43;;;;;;;2.37;74.09;99042.94;5065310;22;20262;-81
2021/11/25 05:39:58;;;;;;;22.30;17.30;;;;;;;2.17;74.55;99013.56;5098310;22;20315;-81
2021/11/25 05:42:36;;;;;;;23.33;17.40;;;;;;;2.37;74.19;99039.47;5090563;28;20275;-81
2021/11/25 05:45:06;;;;;;;24.53;18.13;;;;;;;2.25;74.62;99039.09;5055667;28;20235;-81
2021/11/25 05:47:37;;;;;;;23.37;17.60;;;;;;;2.27;74.53;99033.63;5092259;28;20235;-81
2021/11/25 05:50:29;;;;;;;23.97;18.30;;;;;;;2.28;74.93;99033.47;5113108;22;20228;-81
2021/11/25 05:53:04;;;;;;;27.03;18.27;;;;;;;2.16;75.38;99029.59;5093044;28;20200;-81
2021/11/25 05:55:49;;;;;;;26.33;17.50;;;;;;;2.27;75.11;99026.53;5081705;23;20237;-81
2021/11/25 05:58:17;;;;;;;26.23;18.57;;;;;;;2.08;75.79;99024.41;5093245;28;20240;-81
2021/11/25 06:00:54;;;;;;;25.90;19.00;;;;;;;2.09;75.60;99029.50;5097300;22;20230;-81
2021/11/25 06:03:24;;;;;;;27.00;19.27;;;;;;;2.15;75.33;99012.09;5066940;23;20366;-81
2021/11/25 06:06:06;;;;;;;26.33;19.10;;;;;;;2.12;75.90;99029.16;5059119;28;20180;-81
2021/11/25 06:08:57;;;;;;;28.27;19.47;;;;;;;2.15;76.36;99018.19;5080970;23;20224;-81
2021/11/25 06:11:26;;;;;;;26.87;19.13;;;;;;;2.09;76.00;99012.84;5009561;28;20223;-81
2021/11/25 06:13:53;;;;;;;24.63;18.37;;;;;;;1.98;76.48;99005.34;5079242;22;20279;-81
2021/11/25 06:16:31;;;;;;;26.37;18.70;;;;;;;2.06;75.74;99016.66;5038958;28;20260;-81
2021/11/25 06:19:02;;;;;;;25.77;18.17;;;;;;;2.09;75.88;99003.09;5073357;28;20174;-81
2021/11/25 06:21:31;;;;;;;24.07;18.10;;;;;;;2.02;76.22;98996.88;5040353;28;20604;-81
2021/11/25 06:24:01;;;;;;;26.03;18.47;;;;;;;2.13;75.81;99016.75;5066458;28;20213;-81
2021/11/25 06:26:27;;;;;;;26.10;18.60;;;;;;;2.20;76.20;99017.66;5064433;28;20252;-81
2021/11/25 06:28:59;;;;;;;25.73;19.37;;;;;;;2.21;75.67;99020.13;5030118;28;20229;-81
2021/11/25 06:31:26;;;;;;;25.10;18.60;;;;;;;2.19;76.17;99013.41;5064076;28;20237;-81
2021/11/25 06:33:55;;;;;;;25.97;19.00;;;;;;;2.20;75.62;99012.38;5064657;28;20208;-81
2021/11/25 06:36:22;;;;;;;24.30;18.23;;;;;;;2.22;75.36;99018.31;5031980;28;20275;-81
2021/11/25 06:38:48;;;;;;;24.47;17.17;;;;;;;2.17;75.06;99010.09;5046816;28;20703;-81
2021/11/25 06:41:21;;;;;;;24.20;17.97;;;;;;;2.14;75.57;99029.81;5064482;28;20169;-81
2021/11/25 06:43:48;;;;;;;26.30;19.00;;;;;;;2.15;75.67;99026.13;5078093;22;20211;-81
2021/11/25 06:46:16;;;;;;;25.07;18.43;;;;;;;2.19;75.78;99016.03;5049293;28;20247;-81
2021/11/25 06:48:56;;;;;;;25.63;18.43;;;;;;;2.18;75.25;99019.69;5068917;28;20208;-80
2021/11/25 06:51:27;;;;;;;25.27;18.87;;;;;;;2.28;75.55;99020.25;5066731;28;20300;-82
2021/11/25 06:53:55;;;;;;;25.13;18.23;;;;;;;2.38;74.85;99020.78;5066512;28;20232;-81
2021/11/25 06:56:22;;;;;;;26.37;19.07;;;;;;;2.38;74.92;99009.41;5083441;28;20312;-81
2021/11/25 06:58:52;;;;;;;27.80;18.37;;;;;;;2.37;74.83;99027.09;5047018;28;20569;-81
2021/11/25 07:01:23;;;;;;;22.30;16.97;;;;;;;2.43;74.20;99007.81;5034572;28;20220;-81
2021/11/25 07:03:52;;;;;;;22.77;16.90;;;;;;;2.51;74.13;99005.13;5069339;28;20233;-81
2021/11/25 07:06:23;;;;;;;22.50;16.43;;;;;;;2.65;73.49;99006.94;5072168;23;20232;-81
2021/11/25 07:08:50;;;;;;;21.40;15.30;;;;;;;2.72;72.70;99008.81;5083806;28;20205;-81
2021/11/25 07:11:21;;;;;;;22.10;16.37;;;;;;;2.81;71.48;99005.88;5049433;28;20225;-81
2021/11/25 07:13:52;;;;;;;20.17;16.10;;;;;;;2.82;71.94;98998.75;5084237;28;20236;-81
2021/11/25 07:16:22;;;;;;;21.07;15.77;;;;;;;2.96;71.43;98997.91;5072326;28;20254;-81
2021/11/25 07:19:15;;;;;;;20.77;15.50;;;;;;;3.00;71.64;98997.34;5074909;28;20189;-81
2021/11/25 07:21:56;;;;;;;20.63;15.90;;;;;;;2.98;71.05;98987.97;5078204;22;20226;-80
2021/11/25 07:25:26;;;;;;;26.97;19.07;;;;;;;3.05;70.59;99002.91;5081526;22;20285;-81
2021/11/25 07:28:12;;;;;;;22.13;15.67;;;;;;;3.05;70.94;98970.34;5088278;22;20224;-81
2021/11/25 07:30:39;;;;;;;22.63;16.80;;;;;;;3.12;71.58;98981.81;5056722;28;20230;-82
2021/11/25 07:33:24;;;;;;;22.67;16.77;;;;;;;3.38;72.25;98990.03;5059893;28;20244;-82
2021/11/25 07:36:18;;;;;;;24.97;18.17;;;;;;;3.35;71.94;98966.59;5094531;28;20248;-82
2021/11/25 07:38:50;;;;;;;24.50;16.87;;;;;;;3.63;70.64;98987.00;5115511;22;20232;-82
2021/11/25 07:41:31;;;;;;;21.57;15.83;;;;;;;3.76;69.21;98987.94;5076538;28;20231;-82
2021/11/25 07:44:32;;;;;;;20.83;16.57;;;;;;;3.80;68.91;98978.56;5095041;22;20228;-82
2021/11/25 07:47:32;;;;;;;22.03;16.23;;;;;;;3.87;68.78;98984.72;5076925;23;20200;-82
2021/11/25 07:51:02;;;;;;;20.27;15.57;;;;;;;3.83;68.66;98985.31;5084096;22;21296;-81
2021/11/25 07:53:34;;;;;;;24.30;17.40;;;;;;;3.71;68.48;98965.66;5081102;28;20208;-82
2021/11/25 07:56:49;;;;;;;27.10;19.93;;;;;;;3.92;69.19;98973.56;5040194;23;20197;-83
2021/11/25 07:59:26;;;;;;;23.27;17.70;;;;;;;3.85;69.13;98973.53;5089353;23;20222;-81
2021/11/25 08:02:19;;;;;;;23.17;15.93;;;;;;;3.84;68.64;98950.69;5075865;28;20197;-82
2021/11/25 08:05:07;;;;;;;21.33;16.33;;;;;;;3.90;68.46;98955.22;5086016;23;20259;-81
2021/11/25 08:08:11;;;;;;;22.53;16.73;;;;;;;4.01;68.64;98951.22;5061533;28;20292;-82
2021/11/25 08:10:44;;;;;;;21.90;17.20;;;;;;;3.98;68.40;98939.16;5068361;23;20217;-81
2021/11/25 08:13:19;;;;;;;22.83;17.63;;;;;;;4.08;68.71;98952.06;5083152;23;20209;-81
2021/11/25 08:15:58;;;;;;;22.83;18.10;;;;;;;4.03;68.14;98930.63;5111626;22;20216;-81
2021/11/25 08:18:30;;;;;;;24.80;18.37;;;;;;;4.17;68.58;98942.13;5107912;22;20228;-83
2021/11/25 08:21:00;;;;;;;24.47;19.37;;;;;;;4.18;68.23;98944.59;5063250;28;20247;-81
2021/11/25 08:23:29;;;;;;;25.63;19.67;;;;;;;4.18;68.53;98944.59;5092827;28;20177;-82
2021/11/25 08:25:59;;;;;;;27.03;19.60;;;;;;;4.19;68.56;98940.09;5056622;28;20212;-82
2021/11/25 08:28:27;;;;;;;24.67;19.07;;;;;;;4.35;68.21;98932.63;5086708;28;20236;-82
2021/11/25 08:30:57;;;;;;;26.80;20.00;;;;;;;4.40;67.82;98934.69;5091324;28;20208;-82
2021/11/25 08:33:28;;;;;;;24.53;18.27;;;;;;;4.34;67.99;98915.09;5090747;28;20262;-81
2021/11/25 08:35:58;;;;;;;25.70;19.20;;;;;;;4.42;67.81;98917.59;5057791;28;20320;-83
2021/11/25 08:38:32;;;;;;;23.80;18.50;;;;;;;4.42;67.85;98922.91;5057181;28;20204;-82
2021/11/25 08:41:01;;;;;;;26.87;18.47;;;;;;;4.45;67.76;98926.97;5047172;28;20181;-83
2021/11/25 08:43:30;;;;;;;23.60;18.30;;;;;;;4.59;67.63;98931.31;5160118;22;20221;-82
2021/11/25 08:45:57;;;;;;;25.40;19.77;;;;;;;4.75;66.67;98930.16;5100744;22;20248;-82
2021/11/25 08:48:24;;;;;;;26.80;21.33;;;;;;;4.70;66.65;98929.94;5072385;28;20228;-82
2021/11/25 08:50:51;;;;;;;24.77;18.90;;;;;;;4.83;66.50;98924.66;5057726;28;20215;-82
2021/11/25 08:53:24;;;;;;;24.27;19.20;;;;;;;4.85;66.71;98917.34;5096374;23;20224;-82
2021/11/25 08:55:54;;;;;;;22.90;17.23;;;;;;;4.88;65.91;98911.63;5064238;22;20230;-82
2021/11/25 08:58:22;;;;;;;24.70;17.60;;;;;;;4.87;66.35;98909.97;5020722;28;20232;-82
2021/11/25 09:00:52;;;;;;;24.00;18.33;;;;;;;4.95;66.83;98915.09;5052596;28;20631;-82
2021/11/25 09:03:22;;;;;;;24.83;18.20;;;;;;;4.94;65.91;98897.56;5062366;23;20197;-82
2021/11/25 09:05:56;;;;;;;23.07;17.70;;;;;;;5.03;66.67;98899.00;5094172;28;20267;-82
2021/11/25 09:08:31;;;;;;;23.70;18.03;;;;;;;5.08;66.23;98899.22;5111577;28;20214;-82
2021/11/25 09:11:01;;;;;;;23.33;18.13;;;;;;;5.23;65.68;98902.47;5091815;28;20322;-82
2021/11/25 09:13:29;;;;;;;23.63;17.67;;;;;;;5.31;65.66;98904.97;5092559;28;20321;-83
2021/11/25 09:16:05;;;;;;;26.27;18.73;;;;;;;5.27;65.57;98901.06;5114941;22;20223;-82
2021/11/25 09:18:39;;;;;;;24.47;17.53;;;;;;;5.34;65.03;98901.06;5050704;28;20217;-82
2021/11/25 09:21:06;;;;;;;25.50;17.83;;;;;;;5.33;65.54;98892.28;5053750;28;20224;-83
2021/11/25 09:23:39;;;;;;;25.53;18.37;;;;;;;5.44;64.79;98896.16;5104494;23;20239;-84
2021/11/25 09:26:19;;;;;;;25.33;18.07;;;;;;;5.30;65.23;98871.44;5074602;28;20220;-82
2021/11/25 09:29:16;;;;;;;21.57;17.50;;;;;;;5.55;65.54;98898.19;5093656;28;20220;-82
2021/11/25 09:32:07;;;;;;;25.30;18.70;;;;;;;5.65;64.45;98884.50;5101028;22;20237;-82
2021/11/25 09:34:40;;;;;;;22.63;18.13;;;;;;;5.74;64.29;98892.06;5093379;28;20180;-82
2021/11/25 09:37:15;;;;;;;26.10;18.27;;;;;;;5.83;63.92;98879.38;5094007;28;20199;-82
2021/11/25 09:39:42;;;;;;;24.03;18.97;;;;;;;5.87;63.41;98883.28;5058915;28;20705;-82
2021/11/25 09:42:17;;;;;;;22.17;17.50;;;;;;;5.91;63.35;98873.06;5092212;28;20289;-82
2021/11/25 09:44:47;;;;;;;22.23;16.23;;;;;;;5.98;63.04;98863.22;5085065;22;20247;-83
2021/11/25 09:47:34;;;;;;;19.80;15.90;;;;;;;6.02;62.54;98867.09;5066003;23;20251;-82
2021/11/25 09:50:11;;;;;;;20.00;16.00;;;;;;;6.20;62.12;98867.25;5099084;22;20208;-82
2021/11/25 09:52:38;;;;;;;20.57;16.03;;;;;;;6.22;61.25;98859.88;5059685;28;20225;-81
2021/11/25 09:55:12;;;;;;;20.17;16.27;;;;;;;6.26;61.40;98860.25;5095323;23;20227;-82
2021/11/25 09:57:53;;;;;;;20.73;16.17;;;;;;;6.28;61.48;98859.03;5055343;23;20228;-82
2021/11/25 10:00:28;;;;;;;19.43;15.30;;;;;;;6.40;60.21;98860.00;5113352;22;20662;-82
2021/11/25 10:03:18;;;;;;;21.10;16.43;;;;;;;6.41;60.28;98842.19;5056203;28;20185;-83
2021/11/25 10:06:09;;;;;;;20.03;16.47;;;;;;;6.52;59.55;98833.56;5073881;28;20181;-82
2021/11/25 10:09:00;;;;;;;18.67;15.80;;;;;;;6.67;59.75;98831.44;5074479;28;20225;-82
2021/11/25 10:11:38;;;;;;;21.33;16.37;;;;;;;6.76;59.45;98824.81;5071046;28;20257;-83
2021/11/25 10:14:15;;;;;;;19.13;15.83;;;;;;;6.94;59.17;98824.91;5103810;22;20261;-82
2021/11/25 10:16:48;;;;;;;20.20;14.87;;;;;;;6.94;59.23;98808.91;5078724;28;20196;-82
2021/11/25 10:19:27;;;;;;;19.50;17.10;;;;;;;7.01;58.53;98820.31;5180329;22;20195;-81
2021/11/25 10:22:16;;;;;;;20.30;15.57;;;;;;;7.08;58.66;98813.13;5082451;23;20209;-82
2021/11/25 10:24:58;;;;;;;19.13;14.53;;;;;;;7.08;58.45;98801.66;5083678;23;20236;-82
2021/11/25 10:27:30;;;;;;;21.53;14.53;;;;;;;7.21;58.44;98806.84;5076590;28;20263;-82
2021/11/25 10:30:11;;;;;;;18.80;14.40;;;;;;;7.23;58.00;98802.09;5105794;22;20228;-81
2021/11/25 10:33:03;;;;;;;16.07;13.53;;;;;;;7.18;58.15;98801.16;5157687;23;20233;-82
2021/11/25 10:35:52;;;;;;;17.57;13.60;;;;;;;7.19;58.50;98792.94;5093205;23;20279;-82
2021/11/25 10:38:35;;;;;;;17.30;14.10;;;;;;;7.21;57.42;98784.72;5096085;23;20277;-82
2021/11/25 10:41:29;;;;;;;17.27;14.03;;;;;;;7.37;57.14;98779.63;5086139;22;20200;-81
2021/11/25 10:44:15;;;;;;;20.00;15.97;;;;;;;7.45;56.98;98779.38;5091624;28;20208;-82
2021/11/25 10:47:30;;;;;;;18.07;15.00;;;;;;;7.51;57.15;98783.03;5098322;22;20236;-82
2021/11/25 10:50:00;;;;;;;17.30;14.00;;;;;;;7.59;57.27;98776.56;5138008;22;20236;-82
2021/11/25 10:52:45;;;;;;;13.83;12.23;;;;;;;7.65;55.83;98771.16;5078031;22;20226;-83
2021/11/25 10:55:41;;;;;;;14.80;12.50;;;;;;;7.70;55.81;98757.19;5065747;23;20258;-82
2021/11/25 10:58:16;;;;;;;15.40;12.50;;;;;;;7.66;55.67;98764.78;5083702;22;20235;-81
2021/11/25 11:00:45;;;;;;;16.30;13.73;;;;;;;7.72;55.48;98761.25;5062757;28;20185;-82
2021/11/25 11:03:23;;;;;;;16.87;13.07;;;;;;;7.85;55.36;98752.28;5062822;28;20253;-81
2021/11/25 11:06:07;;;;;;;16.50;13.30;;;;;;;7.93;55.37;98747.44;5096227;28;20208;-81
2021/11/25 11:08:58;;;;;;;15.40;12.77;;;;;;;8.07;55.13;98752.66;5115745;22;20243;-82
2021/11/25 11:11:26;;;;;;;15.53;12.40;;;;;;;8.05;54.03;98744.88;5052343;28;20242;-84
2021/11/25 11:14:30;;;;;;;16.53;12.67;;;;;;;7.94;54.93;98737.59;5076185;23;20256;-82
2021/11/25 11:17:34;;;;;;;16.20;12.50;;;;;;;8.02;55.32;98734.66;5048434;23;20243;-82
2021/11/25 11:20:15;;;;;;;18.83;12.93;;;;;;;8.14;55.24;98742.69;5071958;28;20293;-83
2021/11/25 11:23:09;;;;;;;14.80;13.13;;;;;;;8.24;54.71;98748.31;5090965;22;20275;-82
2021/11/25 11:25:37;;;;;;;14.43;12.47;;;;;;;8.19;54.97;98729.50;5097079;28;20210;-83
2021/11/25 11:28:07;;;;;;;16.00;13.10;;;;;;;8.14;55.42;98729.34;5113764;28;20228;-82
2021/11/25 11:30:39;;;;;;;18.10;13.57;;;;;;;8.21;54.91;98728.22;5079979;28;20219;-82
2021/11/25 11:33:12;;;;;;;16.00;13.47;;;;;;;8.21;55.12;98735.44;5096913;28;20235;-82
2021/11/25 11:35:42;;;;;;;16.17;13.30;;;;;;;8.23;54.90;98715.47;5113490;28;20236;-83
2021/11/25 11:38:13;;;;;;;15.27;12.97;;;;;;;8.23;54.75;98706.66;5114154;28;20224;-83
2021/11/25 11:40:44;;;;;;;15.30;13.20;;;;;;;8.13;54.81;98695.69;5096546;28;20231;-82
2021/11/25 11:43:13;;;;;;;16.10;13.73;;;;;;;8.18;54.62;98703.84;5099569;23;20239;-82
2021/11/25 11:45:43;;;;;;;16.20;13.50;;;;;;;8.18;54.94;98693.16;5060680;28;20209;-83
2021/11/25 11:48:18;;;;;;;16.20;13.40;;;;;;;8.22;55.01;98697.00;5077606;28;20185;-83
2021/11/25 11:50:49;;;;;;;14.33;12.20;;;;;;;8.19;54.97;98679.63;5097202;23;20248;-83
2021/11/25 11:53:19;;;;;;;17.87;14.40;;;;;;;8.20;55.46;98681.25;5071792;28;20690;-82
2021/11/25 11:56:03;;;;;;;17.80;14.43;;;;;;;8.17;54.53;98686.19;5088312;28;20570;-81
2021/11/25 11:58:48;;;;;;;18.23;14.43;;;;;;;8.21;55.28;98682.06;5051937;23;20233;-82
2021/11/25 12:01:25;;;;;;;21.73;14.63;;;;;;;8.21;54.99;98672.19;5045001;28;20217;-82
2021/11/25 12:04:04;;;;;;;18.07;14.70;;;;;;;8.10;55.01;98672.16;5065492;28;20221;-81
2021/11/25 12:06:43;;;;;;;16.03;13.97;;;;;;;8.17;55.71;98668.34;5074190;28;20189;-84
2021/11/25 12:09:31;;;;;;;16.50;14.10;;;;;;;8.08;55.63;98668.88;5056504;28;20248;-83
2021/11/25 12:12:07;;;;;;;16.23;14.07;;;;;;;7.97;55.64;98652.63;5074126;28;20217;-81
2021/11/25 12:14:36;;;;;;;17.63;14.53;;;;;;;7.94;56.08;98658.41;5073468;28;20217;-82
2021/11/25 12:17:07;;;;;;;17.63;15.30;;;;;;;7.89;56.21;98646.78;5072947;28;20214;-82
2021/11/25 12:19:40;;;;;;;18.33;16.07;;;;;;;7.85;56.64;98643.75;5073290;28;20191;-81